sensor_id;sensor_type;location;lat;lon;timestamp;P1;durP1;ratioP1;P2;durP2;ratioP2
5821;SDS011;2937;48.562;8.022;2023-12-07T00:02:20;23.10;;;12.90;;
5821;SDS011;2937;48.562;8.022;2023-12-07T00:07:12;22.23;;;12.90;;
5821;SDS011;2937;48.562;8.022;2023-12-07T00:12:05;27.93;;;12.20;;
5821;SDS011;2937;48.562;8.022;2023-12-07T00:16:58;24.20;;;13.10;;
5821;SDS011;2937;48.562;8.022;2023-12-07T00:21:52;23.57;;;12.67;;
5821;SDS011;2937;48.562;8.022;2023-12-07T00:26:45;20.57;;;11.07;;
5821;SDS011;2937;48.562;8.022;2023-12-07T00:31:37;18.70;;;8.97;;
5821;SDS011;2937;48.562;8.022;2023-12-07T00:36:30;21.33;;;12.20;;
5821;SDS011;2937;48.562;8.022;2023-12-07T00:41:24;23.20;;;12.90;;
5821;SDS011;2937;48.562;8.022;2023-12-07T00:46:16;22.93;;;11.97;;
5821;SDS011;2937;48.562;8.022;2023-12-07T00:51:09;27.30;;;13.47;;
5821;SDS011;2937;48.562;8.022;2023-12-07T00:56:02;26.23;;;12.87;;
5821;SDS011;2937;48.562;8.022;2023-12-07T01:00:56;22.27;;;12.80;;
5821;SDS011;2937;48.562;8.022;2023-12-07T01:05:49;24.60;;;13.13;;
5821;SDS011;2937;48.562;8.022;2023-12-07T01:10:42;26.03;;;13.13;;
5821;SDS011;2937;48.562;8.022;2023-12-07T01:15:35;22.80;;;12.03;;
5821;SDS011;2937;48.562;8.022;2023-12-07T01:20:29;24.37;;;11.73;;
5821;SDS011;2937;48.562;8.022;2023-12-07T01:25:21;27.83;;;12.57;;
5821;SDS011;2937;48.562;8.022;2023-12-07T01:30:15;20.83;;;12.03;;
5821;SDS011;2937;48.562;8.022;2023-12-07T01:35:08;20.43;;;11.13;;
5821;SDS011;2937;48.562;8.022;2023-12-07T01:40:03;21.80;;;11.37;;
5821;SDS011;2937;48.562;8.022;2023-12-07T01:45:01;19.67;;;10.20;;
5821;SDS011;2937;48.562;8.022;2023-12-07T01:49:54;21.13;;;11.80;;
5821;SDS011;2937;48.562;8.022;2023-12-07T01:54:46;22.37;;;12.37;;
5821;SDS011;2937;48.562;8.022;2023-12-07T01:59:41;20.63;;;11.10;;
5821;SDS011;2937;48.562;8.022;2023-12-07T02:04:34;19.53;;;11.87;;
5821;SDS011;2937;48.562;8.022;2023-12-07T02:09:26;21.70;;;11.07;;
5821;SDS011;2937;48.562;8.022;2023-12-07T02:14:19;18.37;;;10.77;;
5821;SDS011;2937;48.562;8.022;2023-12-07T02:19:24;19.83;;;11.30;;
5821;SDS011;2937;48.562;8.022;2023-12-07T02:24:20;19.37;;;9.53;;
5821;SDS011;2937;48.562;8.022;2023-12-07T02:29:14;18.43;;;10.10;;
5821;SDS011;2937;48.562;8.022;2023-12-07T02:34:07;18.07;;;10.07;;
5821;SDS011;2937;48.562;8.022;2023-12-07T02:39:00;17.43;;;10.47;;
5821;SDS011;2937;48.562;8.022;2023-12-07T02:43:55;14.70;;;9.50;;
5821;SDS011;2937;48.562;8.022;2023-12-07T02:48:50;16.63;;;9.10;;
5821;SDS011;2937;48.562;8.022;2023-12-07T02:53:42;17.10;;;10.23;;
5821;SDS011;2937;48.562;8.022;2023-12-07T02:58:35;20.37;;;9.10;;
5821;SDS011;2937;48.562;8.022;2023-12-07T03:03:28;16.03;;;9.30;;
5821;SDS011;2937;48.562;8.022;2023-12-07T03:08:22;16.17;;;9.23;;
5821;SDS011;2937;48.562;8.022;2023-12-07T03:13:14;18.50;;;10.03;;
5821;SDS011;2937;48.562;8.022;2023-12-07T03:18:07;14.40;;;8.80;;
5821;SDS011;2937;48.562;8.022;2023-12-07T03:23:00;16.30;;;8.40;;
5821;SDS011;2937;48.562;8.022;2023-12-07T03:27:54;20.67;;;9.27;;
5821;SDS011;2937;48.562;8.022;2023-12-07T03:32:46;14.80;;;8.50;;
5821;SDS011;2937;48.562;8.022;2023-12-07T03:37:39;11.73;;;7.10;;
5821;SDS011;2937;48.562;8.022;2023-12-07T03:42:31;11.90;;;7.60;;
5821;SDS011;2937;48.562;8.022;2023-12-07T03:47:45;16.17;;;7.90;;
5821;SDS011;2937;48.562;8.022;2023-12-07T03:52:38;14.57;;;7.97;;
5821;SDS011;2937;48.562;8.022;2023-12-07T03:57:31;13.53;;;7.90;;
5821;SDS011;2937;48.562;8.022;2023-12-07T04:02:23;13.93;;;7.87;;
5821;SDS011;2937;48.562;8.022;2023-12-07T04:07:18;14.70;;;7.80;;
5821;SDS011;2937;48.562;8.022;2023-12-07T04:12:10;11.73;;;7.30;;
5821;SDS011;2937;48.562;8.022;2023-12-07T04:17:03;9.87;;;6.07;;
5821;SDS011;2937;48.562;8.022;2023-12-07T04:21:56;15.50;;;7.23;;
5821;SDS011;2937;48.562;8.022;2023-12-07T04:26:50;10.00;;;5.77;;
5821;SDS011;2937;48.562;8.022;2023-12-07T04:31:42;10.57;;;7.13;;
5821;SDS011;2937;48.562;8.022;2023-12-07T04:36:35;14.20;;;6.80;;
5821;SDS011;2937;48.562;8.022;2023-12-07T04:41:28;11.90;;;6.67;;
5821;SDS011;2937;48.562;8.022;2023-12-07T04:46:22;9.23;;;6.80;;
5821;SDS011;2937;48.562;8.022;2023-12-07T04:51:14;10.93;;;7.43;;
5821;SDS011;2937;48.562;8.022;2023-12-07T04:56:07;12.20;;;7.40;;
5821;SDS011;2937;48.562;8.022;2023-12-07T05:01:00;10.13;;;6.37;;
5821;SDS011;2937;48.562;8.022;2023-12-07T05:05:54;13.93;;;7.20;;
5821;SDS011;2937;48.562;8.022;2023-12-07T05:10:46;12.07;;;7.20;;
5821;SDS011;2937;48.562;8.022;2023-12-07T05:15:39;11.30;;;6.50;;
5821;SDS011;2937;48.562;8.022;2023-12-07T05:20:32;13.20;;;7.20;;
5821;SDS011;2937;48.562;8.022;2023-12-07T05:25:26;12.87;;;7.30;;
5821;SDS011;2937;48.562;8.022;2023-12-07T05:30:19;13.60;;;8.10;;
5821;SDS011;2937;48.562;8.022;2023-12-07T05:35:12;17.33;;;9.67;;
5821;SDS011;2937;48.562;8.022;2023-12-07T05:40:05;20.77;;;12.03;;
5821;SDS011;2937;48.562;8.022;2023-12-07T05:45:00;24.70;;;10.23;;
5821;SDS011;2937;48.562;8.022;2023-12-07T05:49:53;22.63;;;11.63;;
5821;SDS011;2937;48.562;8.022;2023-12-07T05:54:45;21.37;;;11.73;;
5821;SDS011;2937;48.562;8.022;2023-12-07T05:59:39;20.00;;;10.87;;
5821;SDS011;2937;48.562;8.022;2023-12-07T06:04:34;20.33;;;10.43;;
5821;SDS011;2937;48.562;8.022;2023-12-07T06:09:27;21.70;;;11.50;;
5821;SDS011;2937;48.562;8.022;2023-12-07T06:14:20;19.87;;;10.60;;
5821;SDS011;2937;48.562;8.022;2023-12-07T06:19:14;20.23;;;10.50;;
5821;SDS011;2937;48.562;8.022;2023-12-07T06:24:08;18.33;;;10.00;;
5821;SDS011;2937;48.562;8.022;2023-12-07T06:29:01;22.30;;;11.90;;
5821;SDS011;2937;48.562;8.022;2023-12-07T06:33:53;19.87;;;11.90;;
5821;SDS011;2937;48.562;8.022;2023-12-07T06:38:46;31.27;;;17.47;;
5821;SDS011;2937;48.562;8.022;2023-12-07T06:43:40;29.80;;;16.03;;
5821;SDS011;2937;48.562;8.022;2023-12-07T06:48:33;27.90;;;15.30;;
5821;SDS011;2937;48.562;8.022;2023-12-07T06:53:26;27.67;;;13.93;;
5821;SDS011;2937;48.562;8.022;2023-12-07T06:58:19;36.30;;;16.33;;
5821;SDS011;2937;48.562;8.022;2023-12-07T07:03:13;157.40;;;21.57;;
5821;SDS011;2937;48.562;8.022;2023-12-07T07:08:06;30.87;;;15.10;;
5821;SDS011;2937;48.562;8.022;2023-12-07T07:13:00;34.70;;;17.93;;
5821;SDS011;2937;48.562;8.022;2023-12-07T07:17:52;36.50;;;18.93;;
5821;SDS011;2937;48.562;8.022;2023-12-07T07:22:46;31.10;;;16.03;;
5821;SDS011;2937;48.562;8.022;2023-12-07T07:27:39;28.80;;;15.50;;
5821;SDS011;2937;48.562;8.022;2023-12-07T07:32:32;39.10;;;21.07;;
5821;SDS011;2937;48.562;8.022;2023-12-07T07:37:24;35.00;;;19.70;;
5821;SDS011;2937;48.562;8.022;2023-12-07T07:42:19;48.53;;;25.20;;
5821;SDS011;2937;48.562;8.022;2023-12-07T07:47:11;50.43;;;26.70;;
5821;SDS011;2937;48.562;8.022;2023-12-07T07:52:04;48.83;;;26.30;;
5821;SDS011;2937;48.562;8.022;2023-12-07T07:56:57;129.20;;;76.37;;
5821;SDS011;2937;48.562;8.022;2023-12-07T08:01:51;31.43;;;19.80;;
5821;SDS011;2937;48.562;8.022;2023-12-07T08:06:44;37.77;;;22.13;;
5821;SDS011;2937;48.562;8.022;2023-12-07T08:11:36;32.20;;;19.90;;
5821;SDS011;2937;48.562;8.022;2023-12-07T08:16:29;26.80;;;17.90;;
5821;SDS011;2937;48.562;8.022;2023-12-07T08:21:23;22.70;;;14.60;;
5821;SDS011;2937;48.562;8.022;2023-12-07T08:26:21;20.80;;;12.80;;
5821;SDS011;2937;48.562;8.022;2023-12-07T08:31:14;31.23;;;17.80;;
5821;SDS011;2937;48.562;8.022;2023-12-07T08:36:07;29.10;;;18.63;;
5821;SDS011;2937;48.562;8.022;2023-12-07T08:41:01;27.00;;;17.50;;
5821;SDS011;2937;48.562;8.022;2023-12-07T08:45:54;31.07;;;19.93;;
5821;SDS011;2937;48.562;8.022;2023-12-07T08:50:52;35.10;;;20.07;;
5821;SDS011;2937;48.562;8.022;2023-12-07T08:55:44;27.90;;;18.73;;
5821;SDS011;2937;48.562;8.022;2023-12-07T09:00:39;28.23;;;17.40;;
5821;SDS011;2937;48.562;8.022;2023-12-07T09:05:31;29.10;;;19.10;;
5821;SDS011;2937;48.562;8.022;2023-12-07T09:10:24;38.57;;;21.73;;
5821;SDS011;2937;48.562;8.022;2023-12-07T09:15:17;38.73;;;22.87;;
5821;SDS011;2937;48.562;8.022;2023-12-07T09:20:11;61.50;;;21.40;;
5821;SDS011;2937;48.562;8.022;2023-12-07T09:25:05;68.47;;;25.53;;
5821;SDS011;2937;48.562;8.022;2023-12-07T09:29:59;53.43;;;23.90;;
5821;SDS011;2937;48.562;8.022;2023-12-07T09:34:52;58.73;;;24.10;;
5821;SDS011;2937;48.562;8.022;2023-12-07T09:39:46;153.20;;;25.10;;
5821;SDS011;2937;48.562;8.022;2023-12-07T09:44:38;148.63;;;23.60;;
5821;SDS011;2937;48.562;8.022;2023-12-07T09:49:31;185.90;;;26.90;;
5821;SDS011;2937;48.562;8.022;2023-12-07T09:54:24;208.90;;;25.23;;
5821;SDS011;2937;48.562;8.022;2023-12-07T09:59:18;207.57;;;19.77;;
5821;SDS011;2937;48.562;8.022;2023-12-07T10:04:14;240.73;;;25.77;;
5821;SDS011;2937;48.562;8.022;2023-12-07T10:09:07;265.83;;;26.93;;
5821;SDS011;2937;48.562;8.022;2023-12-07T10:14:08;218.13;;;25.70;;
5821;SDS011;2937;48.562;8.022;2023-12-07T10:19:10;194.07;;;22.57;;
5821;SDS011;2937;48.562;8.022;2023-12-07T10:24:22;201.67;;;22.20;;
5821;SDS011;2937;48.562;8.022;2023-12-07T10:29:17;221.50;;;23.73;;
5821;SDS011;2937;48.562;8.022;2023-12-07T10:34:24;137.30;;;21.27;;
5821;SDS011;2937;48.562;8.022;2023-12-07T10:39:18;137.37;;;19.87;;
5821;SDS011;2937;48.562;8.022;2023-12-07T10:44:19;107.13;;;21.30;;
5821;SDS011;2937;48.562;8.022;2023-12-07T10:49:13;208.43;;;24.00;;
5821;SDS011;2937;48.562;8.022;2023-12-07T10:54:22;108.40;;;23.37;;
5821;SDS011;2937;48.562;8.022;2023-12-07T10:59:15;124.83;;;17.00;;
5821;SDS011;2937;48.562;8.022;2023-12-07T11:04:20;59.30;;;21.00;;
5821;SDS011;2937;48.562;8.022;2023-12-07T11:09:14;101.73;;;23.23;;
5821;SDS011;2937;48.562;8.022;2023-12-07T11:14:20;130.00;;;22.60;;
5821;SDS011;2937;48.562;8.022;2023-12-07T11:24:25;276.70;;;28.17;;
5821;SDS011;2937;48.562;8.022;2023-12-07T11:29:20;115.20;;;23.90;;
5821;SDS011;2937;48.562;8.022;2023-12-07T11:34:33;138.33;;;24.00;;
5821;SDS011;2937;48.562;8.022;2023-12-07T11:39:25;128.30;;;25.57;;
5821;SDS011;2937;48.562;8.022;2023-12-07T11:44:25;111.80;;;23.33;;
5821;SDS011;2937;48.562;8.022;2023-12-07T11:49:25;124.77;;;25.90;;
5821;SDS011;2937;48.562;8.022;2023-12-07T11:54:26;195.90;;;24.40;;
5821;SDS011;2937;48.562;8.022;2023-12-07T11:59:19;121.27;;;25.60;;
5821;SDS011;2937;48.562;8.022;2023-12-07T12:04:20;128.33;;;23.90;;
5821;SDS011;2937;48.562;8.022;2023-12-07T12:09:13;119.27;;;25.63;;
5821;SDS011;2937;48.562;8.022;2023-12-07T12:14:17;72.60;;;23.73;;
5821;SDS011;2937;48.562;8.022;2023-12-07T12:19:10;111.33;;;23.93;;
5821;SDS011;2937;48.562;8.022;2023-12-07T12:24:11;115.73;;;24.03;;
5821;SDS011;2937;48.562;8.022;2023-12-07T12:29:03;98.97;;;22.83;;
5821;SDS011;2937;48.562;8.022;2023-12-07T12:34:00;139.20;;;21.60;;
5821;SDS011;2937;48.562;8.022;2023-12-07T12:38:58;73.57;;;17.93;;
5821;SDS011;2937;48.562;8.022;2023-12-07T12:43:54;82.33;;;18.53;;
5821;SDS011;2937;48.562;8.022;2023-12-07T12:48:54;98.47;;;19.03;;
5821;SDS011;2937;48.562;8.022;2023-12-07T12:53:48;92.57;;;18.90;;
5821;SDS011;2937;48.562;8.022;2023-12-07T12:58:42;208.73;;;21.20;;
5821;SDS011;2937;48.562;8.022;2023-12-07T13:03:37;100.07;;;17.37;;
5821;SDS011;2937;48.562;8.022;2023-12-07T13:08:30;380.13;;;32.30;;
5821;SDS011;2937;48.562;8.022;2023-12-07T13:13:24;140.60;;;20.80;;
5821;SDS011;2937;48.562;8.022;2023-12-07T13:18:17;198.50;;;26.07;;
5821;SDS011;2937;48.562;8.022;2023-12-07T13:23:11;152.20;;;24.23;;
5821;SDS011;2937;48.562;8.022;2023-12-07T13:28:04;108.80;;;22.13;;
5821;SDS011;2937;48.562;8.022;2023-12-07T13:32:57;238.43;;;26.20;;
5821;SDS011;2937;48.562;8.022;2023-12-07T13:37:55;184.67;;;20.63;;
5821;SDS011;2937;48.562;8.022;2023-12-07T13:42:50;69.00;;;18.00;;
5821;SDS011;2937;48.562;8.022;2023-12-07T13:47:43;124.17;;;20.37;;
5821;SDS011;2937;48.562;8.022;2023-12-07T13:52:36;242.53;;;24.73;;
5821;SDS011;2937;48.562;8.022;2023-12-07T13:57:29;77.00;;;19.17;;
5821;SDS011;2937;48.562;8.022;2023-12-07T14:02:23;121.63;;;19.53;;
5821;SDS011;2937;48.562;8.022;2023-12-07T14:07:17;114.73;;;21.50;;
5821;SDS011;2937;48.562;8.022;2023-12-07T14:12:10;135.73;;;21.87;;
5821;SDS011;2937;48.562;8.022;2023-12-07T14:17:04;83.67;;;19.70;;
5821;SDS011;2937;48.562;8.022;2023-12-07T14:22:03;141.57;;;22.53;;
5821;SDS011;2937;48.562;8.022;2023-12-07T14:26:57;84.23;;;21.90;;
5821;SDS011;2937;48.562;8.022;2023-12-07T14:31:50;133.87;;;25.23;;
5821;SDS011;2937;48.562;8.022;2023-12-07T14:36:43;106.87;;;24.50;;
5821;SDS011;2937;48.562;8.022;2023-12-07T14:41:37;142.97;;;26.10;;
5821;SDS011;2937;48.562;8.022;2023-12-07T14:46:32;159.13;;;25.10;;
5821;SDS011;2937;48.562;8.022;2023-12-07T14:51:25;145.00;;;23.50;;
5821;SDS011;2937;48.562;8.022;2023-12-07T14:56:18;145.70;;;31.53;;
5821;SDS011;2937;48.562;8.022;2023-12-07T15:01:14;144.33;;;30.10;;
5821;SDS011;2937;48.562;8.022;2023-12-07T15:06:07;135.13;;;30.23;;
5821;SDS011;2937;48.562;8.022;2023-12-07T15:11:00;147.10;;;28.60;;
5821;SDS011;2937;48.562;8.022;2023-12-07T15:15:53;198.87;;;28.33;;
5821;SDS011;2937;48.562;8.022;2023-12-07T15:20:47;188.93;;;27.57;;
5821;SDS011;2937;48.562;8.022;2023-12-07T15:25:39;185.17;;;32.80;;
5821;SDS011;2937;48.562;8.022;2023-12-07T15:30:32;180.17;;;31.53;;
5821;SDS011;2937;48.562;8.022;2023-12-07T15:35:26;212.33;;;33.40;;
5821;SDS011;2937;48.562;8.022;2023-12-07T15:40:20;155.43;;;26.77;;
5821;SDS011;2937;48.562;8.022;2023-12-07T15:45:13;214.33;;;33.80;;
5821;SDS011;2937;48.562;8.022;2023-12-07T15:50:06;192.73;;;29.20;;
5821;SDS011;2937;48.562;8.022;2023-12-07T15:54:59;206.00;;;31.90;;
5821;SDS011;2937;48.562;8.022;2023-12-07T15:59:53;520.27;;;41.07;;
5821;SDS011;2937;48.562;8.022;2023-12-07T16:04:46;307.37;;;38.00;;
5821;SDS011;2937;48.562;8.022;2023-12-07T16:09:39;297.33;;;30.90;;
5821;SDS011;2937;48.562;8.022;2023-12-07T16:14:34;200.50;;;28.97;;
5821;SDS011;2937;48.562;8.022;2023-12-07T16:19:28;257.30;;;34.80;;
5821;SDS011;2937;48.562;8.022;2023-12-07T16:24:21;397.60;;;39.97;;
5821;SDS011;2937;48.562;8.022;2023-12-07T16:29:13;270.63;;;34.93;;
5821;SDS011;2937;48.562;8.022;2023-12-07T16:34:06;305.33;;;29.90;;
5821;SDS011;2937;48.562;8.022;2023-12-07T16:39:01;323.07;;;35.80;;
5821;SDS011;2937;48.562;8.022;2023-12-07T16:43:55;201.37;;;32.03;;
5821;SDS011;2937;48.562;8.022;2023-12-07T16:48:48;253.97;;;34.77;;
5821;SDS011;2937;48.562;8.022;2023-12-07T16:53:41;292.83;;;34.00;;
5821;SDS011;2937;48.562;8.022;2023-12-07T16:58:35;335.40;;;34.50;;
5821;SDS011;2937;48.562;8.022;2023-12-07T17:03:28;312.43;;;35.73;;
5821;SDS011;2937;48.562;8.022;2023-12-07T17:08:22;265.87;;;30.83;;
5821;SDS011;2937;48.562;8.022;2023-12-07T17:13:15;387.30;;;41.10;;
5821;SDS011;2937;48.562;8.022;2023-12-07T17:18:09;186.60;;;29.90;;
5821;SDS011;2937;48.562;8.022;2023-12-07T17:23:03;185.57;;;26.70;;
5821;SDS011;2937;48.562;8.022;2023-12-07T17:27:56;192.67;;;27.33;;
5821;SDS011;2937;48.562;8.022;2023-12-07T17:32:51;219.20;;;33.83;;
5821;SDS011;2937;48.562;8.022;2023-12-07T17:37:45;285.67;;;36.07;;
5821;SDS011;2937;48.562;8.022;2023-12-07T17:42:38;226.40;;;30.00;;
5821;SDS011;2937;48.562;8.022;2023-12-07T17:47:30;241.93;;;29.97;;
5821;SDS011;2937;48.562;8.022;2023-12-07T17:52:23;140.40;;;25.07;;
5821;SDS011;2937;48.562;8.022;2023-12-07T17:57:17;223.27;;;33.03;;
5821;SDS011;2937;48.562;8.022;2023-12-07T18:02:10;185.47;;;32.90;;
5821;SDS011;2937;48.562;8.022;2023-12-07T18:07:03;120.93;;;24.07;;
5821;SDS011;2937;48.562;8.022;2023-12-07T18:11:55;112.47;;;22.83;;
5821;SDS011;2937;48.562;8.022;2023-12-07T18:16:51;252.77;;;30.77;;
5821;SDS011;2937;48.562;8.022;2023-12-07T18:21:44;150.87;;;28.40;;
5821;SDS011;2937;48.562;8.022;2023-12-07T18:26:36;448.20;;;40.70;;
5821;SDS011;2937;48.562;8.022;2023-12-07T18:31:29;213.83;;;45.10;;
5821;SDS011;2937;48.562;8.022;2023-12-07T18:36:23;181.63;;;33.90;;
5821;SDS011;2937;48.562;8.022;2023-12-07T18:41:16;227.47;;;28.50;;
5821;SDS011;2937;48.562;8.022;2023-12-07T18:46:08;263.83;;;36.93;;
5821;SDS011;2937;48.562;8.022;2023-12-07T18:51:01;273.93;;;35.43;;
5821;SDS011;2937;48.562;8.022;2023-12-07T18:55:56;234.97;;;34.37;;
5821;SDS011;2937;48.562;8.022;2023-12-07T19:00:48;249.93;;;40.37;;
5821;SDS011;2937;48.562;8.022;2023-12-07T19:05:43;141.73;;;34.90;;
5821;SDS011;2937;48.562;8.022;2023-12-07T19:10:35;210.03;;;29.83;;
5821;SDS011;2937;48.562;8.022;2023-12-07T19:15:30;171.50;;;24.00;;
5821;SDS011;2937;48.562;8.022;2023-12-07T19:20:22;271.40;;;26.47;;
5821;SDS011;2937;48.562;8.022;2023-12-07T19:25:15;176.23;;;35.63;;
5821;SDS011;2937;48.562;8.022;2023-12-07T19:30:09;157.50;;;27.00;;
5821;SDS011;2937;48.562;8.022;2023-12-07T19:35:03;96.73;;;21.03;;
5821;SDS011;2937;48.562;8.022;2023-12-07T19:39:56;171.13;;;27.17;;
5821;SDS011;2937;48.562;8.022;2023-12-07T19:44:49;168.93;;;29.20;;
5821;SDS011;2937;48.562;8.022;2023-12-07T19:49:41;178.43;;;26.80;;
5821;SDS011;2937;48.562;8.022;2023-12-07T19:54:36;170.03;;;26.43;;
5821;SDS011;2937;48.562;8.022;2023-12-07T19:59:29;136.43;;;26.03;;
5821;SDS011;2937;48.562;8.022;2023-12-07T20:04:22;133.07;;;25.97;;
5821;SDS011;2937;48.562;8.022;2023-12-07T20:09:14;98.47;;;23.80;;
5821;SDS011;2937;48.562;8.022;2023-12-07T20:14:09;97.33;;;24.57;;
5821;SDS011;2937;48.562;8.022;2023-12-07T20:19:03;83.37;;;24.77;;
5821;SDS011;2937;48.562;8.022;2023-12-07T20:23:57;73.03;;;24.80;;
5821;SDS011;2937;48.562;8.022;2023-12-07T20:28:50;82.90;;;24.60;;
5821;SDS011;2937;48.562;8.022;2023-12-07T20:33:45;79.97;;;25.57;;
5821;SDS011;2937;48.562;8.022;2023-12-07T20:38:38;62.80;;;22.67;;
5821;SDS011;2937;48.562;8.022;2023-12-07T20:43:31;81.90;;;25.80;;
5821;SDS011;2937;48.562;8.022;2023-12-07T20:48:23;82.50;;;25.67;;
5821;SDS011;2937;48.562;8.022;2023-12-07T20:53:17;98.53;;;24.97;;
5821;SDS011;2937;48.562;8.022;2023-12-07T20:58:11;85.50;;;28.13;;
5821;SDS011;2937;48.562;8.022;2023-12-07T21:03:03;77.87;;;25.50;;
5821;SDS011;2937;48.562;8.022;2023-12-07T21:07:58;66.60;;;24.70;;
5821;SDS011;2937;48.562;8.022;2023-12-07T21:12:52;65.90;;;24.50;;
5821;SDS011;2937;48.562;8.022;2023-12-07T21:17:48;72.90;;;26.67;;
5821;SDS011;2937;48.562;8.022;2023-12-07T21:22:41;66.47;;;24.47;;
5821;SDS011;2937;48.562;8.022;2023-12-07T21:27:33;81.50;;;27.53;;
5821;SDS011;2937;48.562;8.022;2023-12-07T21:32:27;80.43;;;29.57;;
5821;SDS011;2937;48.562;8.022;2023-12-07T21:37:20;70.47;;;26.37;;
5821;SDS011;2937;48.562;8.022;2023-12-07T21:42:13;71.43;;;25.70;;
5821;SDS011;2937;48.562;8.022;2023-12-07T21:47:06;92.10;;;36.67;;
5821;SDS011;2937;48.562;8.022;2023-12-07T21:52:00;90.67;;;31.30;;
5821;SDS011;2937;48.562;8.022;2023-12-07T21:56:53;86.33;;;29.70;;
5821;SDS011;2937;48.562;8.022;2023-12-07T22:01:45;92.63;;;32.43;;
5821;SDS011;2937;48.562;8.022;2023-12-07T22:06:38;92.00;;;27.97;;
5821;SDS011;2937;48.562;8.022;2023-12-07T22:11:32;95.97;;;28.13;;
5821;SDS011;2937;48.562;8.022;2023-12-07T22:16:25;96.03;;;29.27;;
5821;SDS011;2937;48.562;8.022;2023-12-07T22:21:17;75.37;;;27.03;;
5821;SDS011;2937;48.562;8.022;2023-12-07T22:26:10;80.67;;;29.80;;
5821;SDS011;2937;48.562;8.022;2023-12-07T22:31:05;58.60;;;22.40;;
5821;SDS011;2937;48.562;8.022;2023-12-07T22:35:58;58.60;;;23.03;;
5821;SDS011;2937;48.562;8.022;2023-12-07T22:40:51;52.87;;;21.50;;
5821;SDS011;2937;48.562;8.022;2023-12-07T22:45:43;50.57;;;20.67;;
5821;SDS011;2937;48.562;8.022;2023-12-07T22:50:38;46.33;;;22.13;;
5821;SDS011;2937;48.562;8.022;2023-12-07T22:55:30;50.57;;;23.23;;
5821;SDS011;2937;48.562;8.022;2023-12-07T23:00:23;57.67;;;24.97;;
5821;SDS011;2937;48.562;8.022;2023-12-07T23:05:16;60.63;;;26.40;;
5821;SDS011;2937;48.562;8.022;2023-12-07T23:10:11;71.13;;;27.23;;
5821;SDS011;2937;48.562;8.022;2023-12-07T23:15:04;53.83;;;24.80;;
5821;SDS011;2937;48.562;8.022;2023-12-07T23:19:57;50.20;;;23.13;;
5821;SDS011;2937;48.562;8.022;2023-12-07T23:24:50;58.07;;;26.23;;
5821;SDS011;2937;48.562;8.022;2023-12-07T23:29:44;59.13;;;27.47;;
5821;SDS011;2937;48.562;8.022;2023-12-07T23:34:44;72.30;;;27.90;;
5821;SDS011;2937;48.562;8.022;2023-12-07T23:39:39;64.77;;;26.57;;
5821;SDS011;2937;48.562;8.022;2023-12-07T23:44:32;71.77;;;31.03;;
5821;SDS011;2937;48.562;8.022;2023-12-07T23:49:27;72.93;;;29.93;;
5821;SDS011;2937;48.562;8.022;2023-12-07T23:54:20;72.30;;;29.63;;
5821;SDS011;2937;48.562;8.022;2023-12-07T23:59:12;82.53;;;30.30;;
